sensor_id;sensor_type;location;lat;lon;timestamp;temperature;humidity
17146;DHT22;8688;54.444;18.444;2023-02-28T00:04:19;-8.00;99.90
17146;DHT22;8688;54.444;18.444;2023-02-28T00:06:48;-8.00;40.20
17146;DHT22;8688;54.444;18.444;2023-02-28T00:09:15;-8.10;1.00
17146;DHT22;8688;54.444;18.444;2023-02-28T00:11:43;-8.20;1.00
17146;DHT22;8688;54.444;18.444;2023-02-28T00:14:10;-8.40;1.00
17146;DHT22;8688;54.444;18.444;2023-02-28T00:16:38;-8.40;1.00
17146;DHT22;8688;54.444;18.444;2023-02-28T00:19:05;-8.40;17.00
17146;DHT22;8688;54.444;18.444;2023-02-28T00:21:33;-8.40;99.90
17146;DHT22;8688;54.444;18.444;2023-02-28T00:24:03;-8.30;99.90
17146;DHT22;8688;54.444;18.444;2023-02-28T00:26:30;-8.20;1.00
17146;DHT22;8688;54.444;18.444;2023-02-28T00:28:58;-8.30;99.90
17146;DHT22;8688;54.444;18.444;2023-02-28T00:31:25;-8.40;1.00
17146;DHT22;8688;54.444;18.444;2023-02-28T00:33:53;-8.40;99.90
17146;DHT22;8688;54.444;18.444;2023-02-28T00:36:21;-8.40;1.00
17146;DHT22;8688;54.444;18.444;2023-02-28T00:38:48;-8.40;1.00
17146;DHT22;8688;54.444;18.444;2023-02-28T00:41:17;-8.50;1.00
17146;DHT22;8688;54.444;18.444;2023-02-28T00:43:45;-8.50;1.00
17146;DHT22;8688;54.444;18.444;2023-02-28T00:46:12;-8.40;1.00
17146;DHT22;8688;54.444;18.444;2023-02-28T00:48:40;-8.40;26.50
17146;DHT22;8688;54.444;18.444;2023-02-28T00:51:07;-8.30;99.90
17146;DHT22;8688;54.444;18.444;2023-02-28T00:53:35;-8.30;33.90
17146;DHT22;8688;54.444;18.444;2023-02-28T00:56:03;-8.20;99.90
17146;DHT22;8688;54.444;18.444;2023-02-28T00:58:32;-8.20;1.00
17146;DHT22;8688;54.444;18.444;2023-02-28T01:00:59;-8.30;99.90
17146;DHT22;8688;54.444;18.444;2023-02-28T01:03:27;-8.30;99.90
17146;DHT22;8688;54.444;18.444;2023-02-28T01:05:54;-8.20;99.90
17146;DHT22;8688;54.444;18.444;2023-02-28T01:08:22;-8.20;99.90
17146;DHT22;8688;54.444;18.444;2023-02-28T01:10:49;-8.10;99.90
17146;DHT22;8688;54.444;18.444;2023-02-28T01:13:17;-8.10;99.90
17146;DHT22;8688;54.444;18.444;2023-02-28T01:15:50;-8.00;8.40
17146;DHT22;8688;54.444;18.444;2023-02-28T01:18:18;-8.10;1.00
17146;DHT22;8688;54.444;18.444;2023-02-28T01:20:45;-8.20;99.90
17146;DHT22;8688;54.444;18.444;2023-02-28T01:23:13;-8.20;1.00
17146;DHT22;8688;54.444;18.444;2023-02-28T01:25:40;-8.20;56.00
17146;DHT22;8688;54.444;18.444;2023-02-28T01:28:08;-8.20;99.90
17146;DHT22;8688;54.444;18.444;2023-02-28T01:30:35;-8.20;1.10
17146;DHT22;8688;54.444;18.444;2023-02-28T01:33:04;-8.20;99.90
17146;DHT22;8688;54.444;18.444;2023-02-28T01:35:33;-8.20;5.20
17146;DHT22;8688;54.444;18.444;2023-02-28T01:38:00;-8.20;1.00
17146;DHT22;8688;54.444;18.444;2023-02-28T01:40:28;-8.20;1.00
17146;DHT22;8688;54.444;18.444;2023-02-28T01:42:56;-8.20;1.00
17146;DHT22;8688;54.444;18.444;2023-02-28T01:45:26;-8.10;1.00
17146;DHT22;8688;54.444;18.444;2023-02-28T01:47:58;-8.20;99.90
17146;DHT22;8688;54.444;18.444;2023-02-28T01:50:31;-8.10;99.90
17146;DHT22;8688;54.444;18.444;2023-02-28T01:53:05;-8.10;99.90
17146;DHT22;8688;54.444;18.444;2023-02-28T01:55:34;-8.10;1.00
17146;DHT22;8688;54.444;18.444;2023-02-28T01:58:04;-8.10;1.00
17146;DHT22;8688;54.444;18.444;2023-02-28T02:00:32;-8.10;99.90
17146;DHT22;8688;54.444;18.444;2023-02-28T02:03:05;-8.30;1.00
17146;DHT22;8688;54.444;18.444;2023-02-28T02:05:37;-8.40;1.00
17146;DHT22;8688;54.444;18.444;2023-02-28T02:08:06;-8.50;1.00
17146;DHT22;8688;54.444;18.444;2023-02-28T02:10:39;-8.60;1.00
17146;DHT22;8688;54.444;18.444;2023-02-28T02:13:37;-8.60;1.00
17146;DHT22;8688;54.444;18.444;2023-02-28T02:16:13;-8.80;99.90
17146;DHT22;8688;54.444;18.444;2023-02-28T02:18:48;-8.80;1.00
17146;DHT22;8688;54.444;18.444;2023-02-28T02:21:48;-8.80;99.90
17146;DHT22;8688;54.444;18.444;2023-02-28T02:24:50;-8.80;99.90
17146;DHT22;8688;54.444;18.444;2023-02-28T02:30:23;-9.00;1.00
17146;DHT22;8688;54.444;18.444;2023-02-28T02:33:24;-9.20;1.00
17146;DHT22;8688;54.444;18.444;2023-02-28T02:51:28;-9.20;99.90
17146;DHT22;8688;54.444;18.444;2023-02-28T02:54:02;-9.20;99.90
17146;DHT22;8688;54.444;18.444;2023-02-28T02:56:32;-9.00;1.00
17146;DHT22;8688;54.444;18.444;2023-02-28T02:59:02;-9.00;1.00
17146;DHT22;8688;54.444;18.444;2023-02-28T03:01:32;-9.10;99.90
17146;DHT22;8688;54.444;18.444;2023-02-28T03:04:03;-9.00;1.00
17146;DHT22;8688;54.444;18.444;2023-02-28T03:06:33;-9.00;1.00
17146;DHT22;8688;54.444;18.444;2023-02-28T03:09:01;-9.10;1.00
17146;DHT22;8688;54.444;18.444;2023-02-28T03:11:29;-9.00;1.00
17146;DHT22;8688;54.444;18.444;2023-02-28T03:14:11;-8.90;1.00
17146;DHT22;8688;54.444;18.444;2023-02-28T03:19:51;-8.90;1.00
17146;DHT22;8688;54.444;18.444;2023-02-28T03:22:47;-8.90;1.00
17146;DHT22;8688;54.444;18.444;2023-02-28T03:25:22;-8.90;1.00
17146;DHT22;8688;54.444;18.444;2023-02-28T03:28:00;-9.00;99.90
17146;DHT22;8688;54.444;18.444;2023-02-28T03:30:34;-9.00;1.00
17146;DHT22;8688;54.444;18.444;2023-02-28T03:33:08;-9.00;1.00
17146;DHT22;8688;54.444;18.444;2023-02-28T03:35:39;-9.00;99.90
17146;DHT22;8688;54.444;18.444;2023-02-28T03:38:14;-9.00;99.90
17146;DHT22;8688;54.444;18.444;2023-02-28T03:40:46;-8.80;67.10
17146;DHT22;8688;54.444;18.444;2023-02-28T03:43:19;-8.90;1.00
17146;DHT22;8688;54.444;18.444;2023-02-28T03:45:50;-8.90;99.90
17146;DHT22;8688;54.444;18.444;2023-02-28T03:48:21;-8.80;1.00
17146;DHT22;8688;54.444;18.444;2023-02-28T03:50:53;-8.80;1.00
17146;DHT22;8688;54.444;18.444;2023-02-28T03:53:27;-8.90;1.00
17146;DHT22;8688;54.444;18.444;2023-02-28T03:56:01;-8.90;99.90
17146;DHT22;8688;54.444;18.444;2023-02-28T03:58:35;-8.90;99.90
17146;DHT22;8688;54.444;18.444;2023-02-28T04:01:07;-8.90;1.00
17146;DHT22;8688;54.444;18.444;2023-02-28T04:03:37;-8.90;95.30
17146;DHT22;8688;54.444;18.444;2023-02-28T04:06:06;-8.90;1.00
17146;DHT22;8688;54.444;18.444;2023-02-28T04:08:36;-8.80;1.00
17146;DHT22;8688;54.444;18.444;2023-02-28T04:11:07;-8.80;1.00
17146;DHT22;8688;54.444;18.444;2023-02-28T04:13:39;-8.70;33.00
17146;DHT22;8688;54.444;18.444;2023-02-28T04:16:07;-8.70;1.00
17146;DHT22;8688;54.444;18.444;2023-02-28T04:18:37;-8.60;1.00
17146;DHT22;8688;54.444;18.444;2023-02-28T04:21:06;-8.70;1.00
17146;DHT22;8688;54.444;18.444;2023-02-28T04:23:36;-8.80;99.90
17146;DHT22;8688;54.444;18.444;2023-02-28T04:26:04;-8.80;1.00
17146;DHT22;8688;54.444;18.444;2023-02-28T04:28:32;-8.80;24.40
17146;DHT22;8688;54.444;18.444;2023-02-28T04:31:01;-8.80;99.90
17146;DHT22;8688;54.444;18.444;2023-02-28T04:33:30;-8.70;99.90
17146;DHT22;8688;54.444;18.444;2023-02-28T04:35:59;-8.70;99.90
17146;DHT22;8688;54.444;18.444;2023-02-28T04:38:28;-8.60;1.00
17146;DHT22;8688;54.444;18.444;2023-02-28T04:40:59;-8.60;1.00
17146;DHT22;8688;54.444;18.444;2023-02-28T04:43:27;-8.70;1.00
17146;DHT22;8688;54.444;18.444;2023-02-28T04:45:56;-8.80;1.00
17146;DHT22;8688;54.444;18.444;2023-02-28T04:48:24;-8.80;1.00
17146;DHT22;8688;54.444;18.444;2023-02-28T04:50:52;-8.80;1.00
17146;DHT22;8688;54.444;18.444;2023-02-28T04:53:19;-8.80;1.00
17146;DHT22;8688;54.444;18.444;2023-02-28T04:55:47;-8.70;1.00
17146;DHT22;8688;54.444;18.444;2023-02-28T04:58:16;-8.60;1.00
17146;DHT22;8688;54.444;18.444;2023-02-28T05:21:01;-8.60;1.00
17146;DHT22;8688;54.444;18.444;2023-02-28T05:23:29;-8.60;1.00
17146;DHT22;8688;54.444;18.444;2023-02-28T05:25:57;-8.60;1.00
17146;DHT22;8688;54.444;18.444;2023-02-28T05:28:24;-8.60;1.00
17146;DHT22;8688;54.444;18.444;2023-02-28T05:30:52;-8.50;1.00
17146;DHT22;8688;54.444;18.444;2023-02-28T05:33:19;-8.60;32.60
17146;DHT22;8688;54.444;18.444;2023-02-28T05:35:47;-8.80;1.00
17146;DHT22;8688;54.444;18.444;2023-02-28T05:38:16;-8.90;1.00
17146;DHT22;8688;54.444;18.444;2023-02-28T05:40:43;-9.00;1.00
17146;DHT22;8688;54.444;18.444;2023-02-28T05:43:11;-9.00;1.00
17146;DHT22;8688;54.444;18.444;2023-02-28T05:45:39;-8.90;99.90
17146;DHT22;8688;54.444;18.444;2023-02-28T05:48:07;-8.90;1.00
17146;DHT22;8688;54.444;18.444;2023-02-28T05:50:34;-8.90;99.90
17146;DHT22;8688;54.444;18.444;2023-02-28T05:53:02;-8.90;1.00
17146;DHT22;8688;54.444;18.444;2023-02-28T05:55:31;-8.90;99.90
17146;DHT22;8688;54.444;18.444;2023-02-28T05:57:58;-8.90;1.00
17146;DHT22;8688;54.444;18.444;2023-02-28T06:00:26;-8.80;99.90
17146;DHT22;8688;54.444;18.444;2023-02-28T06:02:53;-8.80;99.90
17146;DHT22;8688;54.444;18.444;2023-02-28T06:05:24;-8.80;1.00
17146;DHT22;8688;54.444;18.444;2023-02-28T06:07:51;-8.80;1.00
17146;DHT22;8688;54.444;18.444;2023-02-28T06:10:19;-8.70;1.00
17146;DHT22;8688;54.444;18.444;2023-02-28T06:12:48;-8.60;99.90
17146;DHT22;8688;54.444;18.444;2023-02-28T06:15:16;-8.60;1.00
17146;DHT22;8688;54.444;18.444;2023-02-28T06:17:44;-8.50;99.90
17146;DHT22;8688;54.444;18.444;2023-02-28T06:20:12;-8.40;99.90
17146;DHT22;8688;54.444;18.444;2023-02-28T06:22:40;-8.30;99.90
17146;DHT22;8688;54.444;18.444;2023-02-28T06:25:09;-8.20;1.00
17146;DHT22;8688;54.444;18.444;2023-02-28T06:27:36;-8.20;1.00
17146;DHT22;8688;54.444;18.444;2023-02-28T06:30:07;-8.20;99.90
17146;DHT22;8688;54.444;18.444;2023-02-28T06:32:34;-8.10;1.00
17146;DHT22;8688;54.444;18.444;2023-02-28T06:35:03;-8.10;1.00
17146;DHT22;8688;54.444;18.444;2023-02-28T06:37:31;-8.10;99.90
17146;DHT22;8688;54.444;18.444;2023-02-28T06:39:58;-8.00;11.50
17146;DHT22;8688;54.444;18.444;2023-02-28T06:42:26;-7.90;1.00
17146;DHT22;8688;54.444;18.444;2023-02-28T06:44:54;-7.90;1.00
17146;DHT22;8688;54.444;18.444;2023-02-28T06:47:23;-7.80;99.90
17146;DHT22;8688;54.444;18.444;2023-02-28T06:49:51;-7.70;99.90
17146;DHT22;8688;54.444;18.444;2023-02-28T06:52:18;-7.60;1.00
17146;DHT22;8688;54.444;18.444;2023-02-28T06:54:47;-7.50;99.90
17146;DHT22;8688;54.444;18.444;2023-02-28T06:57:25;-7.40;1.00
17146;DHT22;8688;54.444;18.444;2023-02-28T06:59:52;-7.40;99.90
17146;DHT22;8688;54.444;18.444;2023-02-28T07:02:20;-7.30;1.00
17146;DHT22;8688;54.444;18.444;2023-02-28T07:04:49;-7.20;99.90
17146;DHT22;8688;54.444;18.444;2023-02-28T07:07:16;-7.00;1.00
17146;DHT22;8688;54.444;18.444;2023-02-28T07:09:43;-6.80;69.70
17146;DHT22;8688;54.444;18.444;2023-02-28T07:12:11;-6.50;1.00
17146;DHT22;8688;54.444;18.444;2023-02-28T07:14:38;-6.40;1.00
17146;DHT22;8688;54.444;18.444;2023-02-28T07:17:07;-6.20;1.00
17146;DHT22;8688;54.444;18.444;2023-02-28T07:19:34;-6.10;1.00
17146;DHT22;8688;54.444;18.444;2023-02-28T07:22:03;-6.00;1.00
17146;DHT22;8688;54.444;18.444;2023-02-28T07:24:31;-6.00;1.00
17146;DHT22;8688;54.444;18.444;2023-02-28T07:26:58;-5.80;1.00
17146;DHT22;8688;54.444;18.444;2023-02-28T07:29:26;-5.60;86.90
17146;DHT22;8688;54.444;18.444;2023-02-28T07:31:54;-5.50;99.90
17146;DHT22;8688;54.444;18.444;2023-02-28T07:34:21;-5.30;99.90
17146;DHT22;8688;54.444;18.444;2023-02-28T07:36:49;-5.20;99.90
17146;DHT22;8688;54.444;18.444;2023-02-28T07:39:21;-5.20;99.90
17146;DHT22;8688;54.444;18.444;2023-02-28T07:41:49;-5.10;99.90
17146;DHT22;8688;54.444;18.444;2023-02-28T07:44:16;-5.00;99.90
17146;DHT22;8688;54.444;18.444;2023-02-28T07:46:44;-4.90;99.90
17146;DHT22;8688;54.444;18.444;2023-02-28T07:49:11;-4.80;99.90
17146;DHT22;8688;54.444;18.444;2023-02-28T07:51:38;-4.70;99.90
17146;DHT22;8688;54.444;18.444;2023-02-28T07:54:06;-4.70;99.90
17146;DHT22;8688;54.444;18.444;2023-02-28T07:56:35;-4.60;99.90
17146;DHT22;8688;54.444;18.444;2023-02-28T07:59:03;-4.50;99.90
17146;DHT22;8688;54.444;18.444;2023-02-28T08:01:30;-4.40;99.90
17146;DHT22;8688;54.444;18.444;2023-02-28T08:03:57;-4.40;99.90
17146;DHT22;8688;54.444;18.444;2023-02-28T08:06:25;-4.20;99.90
17146;DHT22;8688;54.444;18.444;2023-02-28T08:08:53;-4.10;99.90
17146;DHT22;8688;54.444;18.444;2023-02-28T08:11:21;-4.00;1.00
17146;DHT22;8688;54.444;18.444;2023-02-28T08:13:50;-3.80;1.00
17146;DHT22;8688;54.444;18.444;2023-02-28T08:16:18;-3.70;1.00
17146;DHT22;8688;54.444;18.444;2023-02-28T08:18:48;-3.60;1.00
17146;DHT22;8688;54.444;18.444;2023-02-28T08:21:16;-3.50;1.00
17146;DHT22;8688;54.444;18.444;2023-02-28T08:23:43;-3.30;1.00
17146;DHT22;8688;54.444;18.444;2023-02-28T08:26:11;-3.20;1.00
17146;DHT22;8688;54.444;18.444;2023-02-28T08:28:38;-2.90;1.00
17146;DHT22;8688;54.444;18.444;2023-02-28T08:31:12;-2.60;1.00
17146;DHT22;8688;54.444;18.444;2023-02-28T08:33:40;-2.30;1.00
17146;DHT22;8688;54.444;18.444;2023-02-28T08:36:09;-2.20;1.00
17146;DHT22;8688;54.444;18.444;2023-02-28T08:38:37;-2.10;1.00
17146;DHT22;8688;54.444;18.444;2023-02-28T08:41:07;-1.90;99.90
17146;DHT22;8688;54.444;18.444;2023-02-28T08:43:35;-1.80;99.90
17146;DHT22;8688;54.444;18.444;2023-02-28T08:46:03;-1.60;99.90
17146;DHT22;8688;54.444;18.444;2023-02-28T08:48:34;-1.40;5.00
17146;DHT22;8688;54.444;18.444;2023-02-28T08:51:05;-1.30;1.00
17146;DHT22;8688;54.444;18.444;2023-02-28T08:53:33;-1.10;1.00
17146;DHT22;8688;54.444;18.444;2023-02-28T08:56:02;-0.90;1.00
17146;DHT22;8688;54.444;18.444;2023-02-28T08:58:30;-0.70;99.90
17146;DHT22;8688;54.444;18.444;2023-02-28T09:00:58;-0.70;1.00
17146;DHT22;8688;54.444;18.444;2023-02-28T09:03:26;-0.60;1.00
17146;DHT22;8688;54.444;18.444;2023-02-28T09:05:57;-0.50;99.90
17146;DHT22;8688;54.444;18.444;2023-02-28T09:08:27;-0.50;18.70
17146;DHT22;8688;54.444;18.444;2023-02-28T09:10:55;-0.30;99.90
17146;DHT22;8688;54.444;18.444;2023-02-28T09:13:24;-0.30;1.00
17146;DHT22;8688;54.444;18.444;2023-02-28T09:15:51;-0.20;1.00
17146;DHT22;8688;54.444;18.444;2023-02-28T09:18:19;-0.10;99.90
17146;DHT22;8688;54.444;18.444;2023-02-28T09:20:46;0.00;36.30
17146;DHT22;8688;54.444;18.444;2023-02-28T09:23:15;0.00;1.00
17146;DHT22;8688;54.444;18.444;2023-02-28T09:25:47;0.10;1.00
17146;DHT22;8688;54.444;18.444;2023-02-28T09:28:15;0.10;1.00
17146;DHT22;8688;54.444;18.444;2023-02-28T09:30:45;0.20;1.00
17146;DHT22;8688;54.444;18.444;2023-02-28T09:33:14;0.20;99.90
17146;DHT22;8688;54.444;18.444;2023-02-28T09:35:41;0.30;99.90
17146;DHT22;8688;54.444;18.444;2023-02-28T09:38:09;0.40;59.60
17146;DHT22;8688;54.444;18.444;2023-02-28T09:40:52;0.40;1.00
17146;DHT22;8688;54.444;18.444;2023-02-28T09:43:23;0.50;99.90
17146;DHT22;8688;54.444;18.444;2023-02-28T09:45:54;0.50;99.90
17146;DHT22;8688;54.444;18.444;2023-02-28T09:48:29;0.60;99.90
17146;DHT22;8688;54.444;18.444;2023-02-28T09:51:03;0.70;99.90
17146;DHT22;8688;54.444;18.444;2023-02-28T09:53:32;0.70;99.90
17146;DHT22;8688;54.444;18.444;2023-02-28T09:56:06;0.80;1.00
17146;DHT22;8688;54.444;18.444;2023-02-28T09:58:48;0.80;1.00
17146;DHT22;8688;54.444;18.444;2023-02-28T10:01:23;0.80;1.00
17146;DHT22;8688;54.444;18.444;2023-02-28T10:03:56;0.90;1.00
17146;DHT22;8688;54.444;18.444;2023-02-28T10:06:29;0.90;1.00
17146;DHT22;8688;54.444;18.444;2023-02-28T10:09:02;1.00;1.00
17146;DHT22;8688;54.444;18.444;2023-02-28T10:11:33;1.00;1.00
17146;DHT22;8688;54.444;18.444;2023-02-28T10:14:04;1.00;1.00
17146;DHT22;8688;54.444;18.444;2023-02-28T10:16:39;1.10;1.00
17146;DHT22;8688;54.444;18.444;2023-02-28T10:19:14;1.20;1.00
17146;DHT22;8688;54.444;18.444;2023-02-28T10:21:47;1.20;1.00
17146;DHT22;8688;54.444;18.444;2023-02-28T10:24:21;1.30;1.00
17146;DHT22;8688;54.444;18.444;2023-02-28T10:26:52;1.30;1.00
17146;DHT22;8688;54.444;18.444;2023-02-28T10:29:20;1.40;1.00
17146;DHT22;8688;54.444;18.444;2023-02-28T10:31:48;1.50;1.00
17146;DHT22;8688;54.444;18.444;2023-02-28T10:34:15;1.50;1.00
17146;DHT22;8688;54.444;18.444;2023-02-28T10:36:43;1.50;1.00
17146;DHT22;8688;54.444;18.444;2023-02-28T10:39:36;1.60;1.00
17146;DHT22;8688;54.444;18.444;2023-02-28T10:42:19;1.60;99.90
17146;DHT22;8688;54.444;18.444;2023-02-28T10:44:47;1.60;99.90
17146;DHT22;8688;54.444;18.444;2023-02-28T10:47:17;1.60;99.90
17146;DHT22;8688;54.444;18.444;2023-02-28T10:49:48;1.60;99.90
17146;DHT22;8688;54.444;18.444;2023-02-28T10:52:33;1.70;99.90
17146;DHT22;8688;54.444;18.444;2023-02-28T10:55:20;1.70;99.90
17146;DHT22;8688;54.444;18.444;2023-02-28T10:57:50;1.70;99.90
17146;DHT22;8688;54.444;18.444;2023-02-28T11:00:20;1.80;99.90
17146;DHT22;8688;54.444;18.444;2023-02-28T11:02:48;1.80;99.90
17146;DHT22;8688;54.444;18.444;2023-02-28T11:05:25;1.80;99.90
17146;DHT22;8688;54.444;18.444;2023-02-28T11:07:53;1.90;99.90
17146;DHT22;8688;54.444;18.444;2023-02-28T11:10:31;1.90;99.90
17146;DHT22;8688;54.444;18.444;2023-02-28T11:13:02;2.00;99.90
17146;DHT22;8688;54.444;18.444;2023-02-28T11:15:31;2.00;99.90
17146;DHT22;8688;54.444;18.444;2023-02-28T11:18:01;2.00;99.90
17146;DHT22;8688;54.444;18.444;2023-02-28T11:20:32;2.00;99.90
17146;DHT22;8688;54.444;18.444;2023-02-28T11:23:01;2.10;99.90
17146;DHT22;8688;54.444;18.444;2023-02-28T11:25:31;2.10;96.30
17146;DHT22;8688;54.444;18.444;2023-02-28T11:28:01;2.10;99.90
17146;DHT22;8688;54.444;18.444;2023-02-28T11:30:34;2.20;82.70
17146;DHT22;8688;54.444;18.444;2023-02-28T11:33:22;2.20;36.80
17146;DHT22;8688;54.444;18.444;2023-02-28T11:35:51;2.30;65.20
17146;DHT22;8688;54.444;18.444;2023-02-28T11:38:18;2.30;59.30
17146;DHT22;8688;54.444;18.444;2023-02-28T11:40:52;2.30;53.60
17146;DHT22;8688;54.444;18.444;2023-02-28T11:43:32;2.40;45.30
17146;DHT22;8688;54.444;18.444;2023-02-28T11:46:16;2.50;95.30
17146;DHT22;8688;54.444;18.444;2023-02-28T11:48:58;2.60;45.70
17146;DHT22;8688;54.444;18.444;2023-02-28T11:51:33;2.70;32.20
17146;DHT22;8688;54.444;18.444;2023-02-28T11:54:20;2.70;26.00
17146;DHT22;8688;54.444;18.444;2023-02-28T11:56:55;2.70;1.00
17146;DHT22;8688;54.444;18.444;2023-02-28T11:59:40;2.70;8.80
17146;DHT22;8688;54.444;18.444;2023-02-28T12:02:24;2.80;1.00
17146;DHT22;8688;54.444;18.444;2023-02-28T12:05:14;2.80;1.00
17146;DHT22;8688;54.444;18.444;2023-02-28T12:07:53;2.90;1.00
17146;DHT22;8688;54.444;18.444;2023-02-28T12:10:26;3.00;1.00
17146;DHT22;8688;54.444;18.444;2023-02-28T12:13:03;3.00;1.00
17146;DHT22;8688;54.444;18.444;2023-02-28T12:15:55;3.10;1.00
17146;DHT22;8688;54.444;18.444;2023-02-28T12:18:50;3.20;1.00
17146;DHT22;8688;54.444;18.444;2023-02-28T12:21:25;3.30;1.00
17146;DHT22;8688;54.444;18.444;2023-02-28T12:24:07;3.40;1.00
17146;DHT22;8688;54.444;18.444;2023-02-28T12:26:41;3.50;1.00
17146;DHT22;8688;54.444;18.444;2023-02-28T12:29:16;3.50;1.00
17146;DHT22;8688;54.444;18.444;2023-02-28T12:31:50;3.60;1.00
17146;DHT22;8688;54.444;18.444;2023-02-28T12:34:21;3.70;1.00
17146;DHT22;8688;54.444;18.444;2023-02-28T12:36:52;3.70;1.00
17146;DHT22;8688;54.444;18.444;2023-02-28T12:39:25;3.80;1.00
17146;DHT22;8688;54.444;18.444;2023-02-28T12:41:55;3.90;1.00
17146;DHT22;8688;54.444;18.444;2023-02-28T12:44:30;3.90;1.00
17146;DHT22;8688;54.444;18.444;2023-02-28T12:47:04;4.00;1.00
17146;DHT22;8688;54.444;18.444;2023-02-28T12:49:34;4.00;1.00
17146;DHT22;8688;54.444;18.444;2023-02-28T12:52:04;4.10;1.00
17146;DHT22;8688;54.444;18.444;2023-02-28T12:54:42;4.10;1.00
17146;DHT22;8688;54.444;18.444;2023-02-28T12:57:15;4.20;1.00
17146;DHT22;8688;54.444;18.444;2023-02-28T12:59:50;4.30;1.00
17146;DHT22;8688;54.444;18.444;2023-02-28T13:02:48;4.40;1.00
17146;DHT22;8688;54.444;18.444;2023-02-28T13:05:46;4.40;1.00
17146;DHT22;8688;54.444;18.444;2023-02-28T13:08:54;4.50;1.00
17146;DHT22;8688;54.444;18.444;2023-02-28T13:11:28;4.60;1.00
17146;DHT22;8688;54.444;18.444;2023-02-28T13:13:58;4.60;1.00
17146;DHT22;8688;54.444;18.444;2023-02-28T13:16:27;4.60;1.00
17146;DHT22;8688;54.444;18.444;2023-02-28T13:19:09;4.60;1.00
17146;DHT22;8688;54.444;18.444;2023-02-28T13:21:47;4.70;1.00
17146;DHT22;8688;54.444;18.444;2023-02-28T13:24:36;4.80;1.00
17146;DHT22;8688;54.444;18.444;2023-02-28T13:27:37;4.80;1.00
17146;DHT22;8688;54.444;18.444;2023-02-28T13:33:28;4.80;1.00
17146;DHT22;8688;54.444;18.444;2023-02-28T13:36:25;4.90;1.00
17146;DHT22;8688;54.444;18.444;2023-02-28T13:38:55;4.90;1.00
17146;DHT22;8688;54.444;18.444;2023-02-28T13:41:46;4.90;1.00
17146;DHT22;8688;54.444;18.444;2023-02-28T13:44:16;4.90;1.00
17146;DHT22;8688;54.444;18.444;2023-02-28T13:50:14;4.70;1.00
17146;DHT22;8688;54.444;18.444;2023-02-28T13:52:49;4.80;1.00
17146;DHT22;8688;54.444;18.444;2023-02-28T13:55:29;4.90;1.00
17146;DHT22;8688;54.444;18.444;2023-02-28T13:58:12;4.90;1.00
17146;DHT22;8688;54.444;18.444;2023-02-28T14:01:03;4.90;1.00
17146;DHT22;8688;54.444;18.444;2023-02-28T14:03:46;5.10;1.00
17146;DHT22;8688;54.444;18.444;2023-02-28T14:06:25;5.10;1.00
17146;DHT22;8688;54.444;18.444;2023-02-28T14:08:58;5.00;1.00
17146;DHT22;8688;54.444;18.444;2023-02-28T14:11:29;5.00;1.00
17146;DHT22;8688;54.444;18.444;2023-02-28T14:13:58;5.10;1.00
17146;DHT22;8688;54.444;18.444;2023-02-28T14:16:27;5.00;1.00
17146;DHT22;8688;54.444;18.444;2023-02-28T14:19:03;5.00;1.00
17146;DHT22;8688;54.444;18.444;2023-02-28T14:21:39;4.90;1.00
17146;DHT22;8688;54.444;18.444;2023-02-28T14:27:35;4.80;1.00
17146;DHT22;8688;54.444;18.444;2023-02-28T14:30:26;4.80;1.00
17146;DHT22;8688;54.444;18.444;2023-02-28T14:33:05;4.80;1.00
17146;DHT22;8688;54.444;18.444;2023-02-28T14:36:08;4.70;1.00
17146;DHT22;8688;54.444;18.444;2023-02-28T14:38:43;4.70;1.00
17146;DHT22;8688;54.444;18.444;2023-02-28T14:41:19;4.70;1.00
17146;DHT22;8688;54.444;18.444;2023-02-28T14:43:51;4.60;1.00
17146;DHT22;8688;54.444;18.444;2023-02-28T14:46:19;4.50;1.00
17146;DHT22;8688;54.444;18.444;2023-02-28T14:48:47;4.40;1.00
17146;DHT22;8688;54.444;18.444;2023-02-28T14:51:19;4.30;1.00
17146;DHT22;8688;54.444;18.444;2023-02-28T14:53:49;4.20;1.00
17146;DHT22;8688;54.444;18.444;2023-02-28T14:56:26;4.20;1.00
17146;DHT22;8688;54.444;18.444;2023-02-28T14:58:57;4.10;1.00
17146;DHT22;8688;54.444;18.444;2023-02-28T15:01:26;4.10;1.00
17146;DHT22;8688;54.444;18.444;2023-02-28T15:04:02;4.00;1.00
17146;DHT22;8688;54.444;18.444;2023-02-28T15:06:31;4.00;1.00
17146;DHT22;8688;54.444;18.444;2023-02-28T15:09:10;3.90;1.00
17146;DHT22;8688;54.444;18.444;2023-02-28T15:11:39;3.90;1.00
17146;DHT22;8688;54.444;18.444;2023-02-28T15:14:18;3.90;1.00
17146;DHT22;8688;54.444;18.444;2023-02-28T15:16:49;3.80;1.00
17146;DHT22;8688;54.444;18.444;2023-02-28T15:19:21;3.70;1.00
17146;DHT22;8688;54.444;18.444;2023-02-28T15:21:52;3.60;12.90
17146;DHT22;8688;54.444;18.444;2023-02-28T15:24:26;3.50;93.20
17146;DHT22;8688;54.444;18.444;2023-02-28T15:26:57;3.40;99.90
17146;DHT22;8688;54.444;18.444;2023-02-28T15:29:29;3.30;99.90
17146;DHT22;8688;54.444;18.444;2023-02-28T15:32:00;3.30;99.90
17146;DHT22;8688;54.444;18.444;2023-02-28T15:34:34;3.20;99.90
17146;DHT22;8688;54.444;18.444;2023-02-28T15:37:06;3.30;99.90
17146;DHT22;8688;54.444;18.444;2023-02-28T15:39:52;3.20;99.90
17146;DHT22;8688;54.444;18.444;2023-02-28T15:42:22;3.20;99.90
17146;DHT22;8688;54.444;18.444;2023-02-28T15:44:51;3.10;99.90
17146;DHT22;8688;54.444;18.444;2023-02-28T15:47:20;3.10;99.90
17146;DHT22;8688;54.444;18.444;2023-02-28T15:49:49;3.00;99.90
17146;DHT22;8688;54.444;18.444;2023-02-28T15:52:20;3.00;99.90
17146;DHT22;8688;54.444;18.444;2023-02-28T15:54:48;2.90;99.90
17146;DHT22;8688;54.444;18.444;2023-02-28T15:57:19;2.80;99.90
17146;DHT22;8688;54.444;18.444;2023-02-28T15:59:52;2.60;1.00
17146;DHT22;8688;54.444;18.444;2023-02-28T16:02:25;2.50;1.00
17146;DHT22;8688;54.444;18.444;2023-02-28T16:05:02;2.50;1.00
17146;DHT22;8688;54.444;18.444;2023-02-28T16:07:43;2.50;1.00
17146;DHT22;8688;54.444;18.444;2023-02-28T16:10:12;2.50;1.00
17146;DHT22;8688;54.444;18.444;2023-02-28T16:12:41;2.30;1.00
17146;DHT22;8688;54.444;18.444;2023-02-28T16:15:22;2.20;1.00
17146;DHT22;8688;54.444;18.444;2023-02-28T16:17:50;2.20;99.90
17146;DHT22;8688;54.444;18.444;2023-02-28T16:20:19;2.10;99.90
17146;DHT22;8688;54.444;18.444;2023-02-28T16:22:47;2.00;99.90
17146;DHT22;8688;54.444;18.444;2023-02-28T16:25:15;2.00;99.90
17146;DHT22;8688;54.444;18.444;2023-02-28T16:27:45;1.90;99.90
17146;DHT22;8688;54.444;18.444;2023-02-28T16:30:19;1.90;99.90
17146;DHT22;8688;54.444;18.444;2023-02-28T16:32:48;1.90;99.90
17146;DHT22;8688;54.444;18.444;2023-02-28T16:35:16;1.80;99.90
17146;DHT22;8688;54.444;18.444;2023-02-28T16:37:44;1.80;99.90
17146;DHT22;8688;54.444;18.444;2023-02-28T16:40:14;1.80;99.90
17146;DHT22;8688;54.444;18.444;2023-02-28T16:42:44;1.80;99.90
17146;DHT22;8688;54.444;18.444;2023-02-28T16:45:19;1.70;99.90
17146;DHT22;8688;54.444;18.444;2023-02-28T16:47:47;1.60;99.90
17146;DHT22;8688;54.444;18.444;2023-02-28T16:50:17;1.60;99.90
17146;DHT22;8688;54.444;18.444;2023-02-28T16:52:46;1.50;99.90
17146;DHT22;8688;54.444;18.444;2023-02-28T16:55:15;1.40;1.00
17146;DHT22;8688;54.444;18.444;2023-02-28T16:57:43;1.30;1.00
17146;DHT22;8688;54.444;18.444;2023-02-28T17:00:13;1.10;99.90
17146;DHT22;8688;54.444;18.444;2023-02-28T17:02:42;1.10;99.90
17146;DHT22;8688;54.444;18.444;2023-02-28T17:05:12;1.00;99.90
17146;DHT22;8688;54.444;18.444;2023-02-28T17:07:41;0.90;99.90
17146;DHT22;8688;54.444;18.444;2023-02-28T17:10:14;0.90;1.00
17146;DHT22;8688;54.444;18.444;2023-02-28T17:12:42;0.90;1.00